createdAt,value
2018-03-04T00:01:02.608Z,37.08
2018-03-04T00:03:30.978Z,37.15
2018-03-04T00:05:58.496Z,50.47
2018-03-04T00:08:26.022Z,37.42
2018-03-04T00:10:54.867Z,44.85
2018-03-04T00:13:22.370Z,56.37
2018-03-04T00:15:49.876Z,38.80
2018-03-04T00:18:17.368Z,46.45
2018-03-04T00:20:44.972Z,36.00
2018-03-04T00:23:12.824Z,46.17
2018-03-04T00:25:40.529Z,35.25
2018-03-04T00:28:08.799Z,46.20
2018-03-04T00:30:37.077Z,44.92
2018-03-04T00:33:05.354Z,44.60
2018-03-04T00:35:33.692Z,38.75
2018-03-04T00:38:01.507Z,36.05
2018-03-04T00:40:29.771Z,48.85
2018-03-04T00:42:57.262Z,38.67
2018-03-04T00:45:25.532Z,38.08
2018-03-04T00:47:53.818Z,36.92
2018-03-04T00:50:22.100Z,44.40
2018-03-04T00:52:50.363Z,47.25
2018-03-04T00:55:18.636Z,33.25
2018-03-04T00:57:46.161Z,41.33
2018-03-04T01:00:13.661Z,43.50
2018-03-04T01:02:41.160Z,50.88
2018-03-04T01:05:09.452Z,45.03
2018-03-04T01:07:36.970Z,46.42
2018-03-04T01:10:05.220Z,36.53
2018-03-04T01:12:32.932Z,40.00
2018-03-04T01:15:01.209Z,45.30
2018-03-04T01:17:28.942Z,39.80
2018-03-04T01:19:57.002Z,48.45
2018-03-04T01:22:24.579Z,42.85
2018-03-04T01:24:52.088Z,40.88
2018-03-04T01:27:20.392Z,49.88
2018-03-04T01:29:47.940Z,44.78
2018-03-04T01:32:16.220Z,44.00
2018-03-04T01:34:44.501Z,46.20
2018-03-04T01:37:12.773Z,44.03
2018-03-04T01:39:41.127Z,71.20
2018-03-04T01:42:09.391Z,44.42
2018-03-04T01:44:36.969Z,45.47
2018-03-04T01:47:04.486Z,42.05
2018-03-04T01:49:32.011Z,47.92
2018-03-04T01:52:00.292Z,39.05
2018-03-04T01:54:27.811Z,42.60
2018-03-04T01:56:55.358Z,47.95
2018-03-04T01:59:22.870Z,48.78
2018-03-04T02:01:50.386Z,47.72
2018-03-04T02:04:17.914Z,47.58
2018-03-04T02:06:45.559Z,51.60
2018-03-04T02:09:13.065Z,43.33
2018-03-04T02:11:41.352Z,35.00
2018-03-04T02:14:09.634Z,47.53
2018-03-04T02:16:37.942Z,46.42
2018-03-04T02:19:05.446Z,40.90
2018-03-04T02:21:32.980Z,50.12
2018-03-04T02:24:00.480Z,49.38
2018-03-04T02:26:27.978Z,50.33
2018-03-04T02:28:55.516Z,45.58
2018-03-04T02:31:23.791Z,43.92
2018-03-04T02:33:52.100Z,44.83
2018-03-04T02:36:19.707Z,34.35
2018-03-04T02:38:47.235Z,48.63
2018-03-04T02:41:14.746Z,31.15
2018-03-04T02:43:42.470Z,49.78
2018-03-04T02:46:09.967Z,43.00
2018-03-04T02:48:37.536Z,41.92
2018-03-04T02:51:05.230Z,43.92
2018-03-04T02:53:33.519Z,45.40
2018-03-04T02:56:01.781Z,40.35
2018-03-04T02:58:29.315Z,40.92
2018-03-04T03:00:57.640Z,48.13
2018-03-04T03:03:25.933Z,40.08
2018-03-04T03:05:54.226Z,51.42
2018-03-04T03:08:21.868Z,59.17
2018-03-04T03:10:49.391Z,49.33
2018-03-04T03:13:16.885Z,47.50
2018-03-04T03:15:44.437Z,39.13
2018-03-04T03:18:11.968Z,48.00
2018-03-04T03:20:39.507Z,36.63
2018-03-04T03:23:07.017Z,38.50
2018-03-04T03:25:34.883Z,44.83
2018-03-04T03:28:02.459Z,46.65
2018-03-04T03:30:29.976Z,42.35
2018-03-04T03:32:57.478Z,47.62
2018-03-04T03:35:25.009Z,54.13
2018-03-04T03:37:52.538Z,44.03
2018-03-04T03:40:20.823Z,45.08
2018-03-04T03:42:48.347Z,43.92
2018-03-04T03:45:15.928Z,43.08
2018-03-04T03:47:43.428Z,49.83
2018-03-04T03:50:12.163Z,43.53
2018-03-04T03:52:39.694Z,42.60
2018-03-04T03:55:08.050Z,51.70
2018-03-04T03:57:36.384Z,41.80
2018-03-04T04:00:03.911Z,41.33
2018-03-04T04:02:31.463Z,44.75
2018-03-04T04:04:59.900Z,56.47
2018-03-04T04:07:27.413Z,46.08
2018-03-04T04:09:55.698Z,49.28
2018-03-04T04:12:23.977Z,44.25
2018-03-04T04:14:52.246Z,46.37
2018-03-04T04:17:19.757Z,52.47
2018-03-04T04:19:47.462Z,47.92
2018-03-04T04:22:14.986Z,45.50
2018-03-04T04:24:42.535Z,54.92
2018-03-04T04:27:10.137Z,46.10
2018-03-04T04:29:37.696Z,52.92
2018-03-04T04:32:05.219Z,36.65
2018-03-04T04:34:32.741Z,51.83
2018-03-04T04:37:00.277Z,48.58
2018-03-04T04:39:27.864Z,56.17
2018-03-04T04:41:55.371Z,45.85
2018-03-04T04:44:23.666Z,43.10
2018-03-04T04:46:51.321Z,49.58
2018-03-04T04:49:18.814Z,48.80
2018-03-04T04:51:46.342Z,53.83
2018-03-04T04:54:13.844Z,49.42
2018-03-04T04:56:41.377Z,38.65
2018-03-04T04:59:09.857Z,45.28
2018-03-04T05:01:38.155Z,49.92
2018-03-04T05:04:05.641Z,43.63
2018-03-04T05:06:33.177Z,47.22
2018-03-04T05:09:00.825Z,46.90
2018-03-04T05:11:29.091Z,50.47
2018-03-04T05:13:57.377Z,58.10
2018-03-04T05:16:24.883Z,45.15
2018-03-04T05:18:53.383Z,44.25
2018-03-04T05:21:20.896Z,39.58
2018-03-04T05:23:49.351Z,54.60
2018-03-04T05:26:16.809Z,43.28
2018-03-04T05:28:44.313Z,49.65
2018-03-04T05:31:12.597Z,44.53
2018-03-04T05:33:40.851Z,49.28
2018-03-04T05:36:08.385Z,40.10
2018-03-04T05:38:35.885Z,48.13
2018-03-04T05:41:03.398Z,48.40
2018-03-04T05:43:30.930Z,45.35
2018-03-04T05:45:58.483Z,53.53
2018-03-04T05:48:26.747Z,47.50
2018-03-04T05:50:54.251Z,42.38
2018-03-04T05:53:21.762Z,62.03
2018-03-04T05:55:49.416Z,39.17
2018-03-04T05:58:16.911Z,44.03
2018-03-04T06:00:44.419Z,46.45
2018-03-04T06:03:11.923Z,53.72
2018-03-04T06:05:39.429Z,37.00
2018-03-04T06:08:06.946Z,39.08
2018-03-04T06:10:35.953Z,44.00
2018-03-04T06:13:03.479Z,53.38
2018-03-04T06:15:31.429Z,66.28
2018-03-04T06:17:58.974Z,51.05
2018-03-04T06:20:27.232Z,39.70
2018-03-04T06:22:55.509Z,56.15
2018-03-04T06:25:23.026Z,48.78
2018-03-04T06:27:51.056Z,43.45
2018-03-04T06:30:19.347Z,58.63
2018-03-04T06:32:47.606Z,45.22
2018-03-04T06:35:15.152Z,47.85
2018-03-04T06:37:42.697Z,45.35
2018-03-04T06:40:10.243Z,44.15
2018-03-04T06:42:37.767Z,38.72
2018-03-04T06:45:05.278Z,50.92
2018-03-04T06:47:32.851Z,59.25
2018-03-04T06:50:00.396Z,43.00
2018-03-04T06:52:27.921Z,54.70
2018-03-04T06:54:55.471Z,39.63
2018-03-04T06:57:23.367Z,46.17
2018-03-04T06:59:52.238Z,41.97
2018-03-04T07:02:19.781Z,48.80
2018-03-04T07:04:47.305Z,42.95
2018-03-04T07:07:15.584Z,53.45
2018-03-04T07:09:43.855Z,41.40
2018-03-04T07:12:11.385Z,49.80
2018-03-04T07:14:38.889Z,45.42
2018-03-04T07:17:07.179Z,59.47
2018-03-04T07:19:34.694Z,48.90
2018-03-04T07:22:02.206Z,39.30
2018-03-04T07:24:30.470Z,50.40
2018-03-04T07:26:58.143Z,49.15
2018-03-04T07:29:26.407Z,51.28
2018-03-04T07:31:53.912Z,56.28
2018-03-04T07:34:21.432Z,51.10
2018-03-04T07:36:48.978Z,46.72
2018-03-04T07:39:16.484Z,55.50
2018-03-04T07:41:44.757Z,57.78
2018-03-04T07:44:13.052Z,52.92
2018-03-04T07:46:41.471Z,41.72
2018-03-04T07:49:08.968Z,44.50
2018-03-04T07:51:36.753Z,45.12
2018-03-04T07:54:05.112Z,61.75
2018-03-04T07:56:32.686Z,51.55
2018-03-04T07:59:00.199Z,52.78
2018-03-04T08:01:27.714Z,49.72
2018-03-04T08:03:55.313Z,49.25
2018-03-04T08:06:22.804Z,50.83
2018-03-04T08:08:50.320Z,43.10
2018-03-04T08:11:18.624Z,60.00
2018-03-04T08:13:46.139Z,50.47
2018-03-04T08:16:13.658Z,51.42
2018-03-04T08:18:41.148Z,51.45
2018-03-04T08:21:08.802Z,47.58
2018-03-04T08:23:36.294Z,49.40
2018-03-04T08:26:15.798Z,49.13
2018-03-04T08:28:43.310Z,56.50
2018-03-04T08:31:11.640Z,57.33
2018-03-04T08:33:39.918Z,48.17
2018-03-04T08:36:07.453Z,52.55
2018-03-04T08:38:35.742Z,47.58
2018-03-04T08:41:04.002Z,47.90
2018-03-04T08:43:32.316Z,58.40
2018-03-04T08:45:59.884Z,54.95
2018-03-04T08:48:27.408Z,46.88
2018-03-04T08:50:55.694Z,42.75
2018-03-04T08:53:23.982Z,52.58
2018-03-04T08:55:52.256Z,44.60
2018-03-04T08:58:20.533Z,50.45
2018-03-04T09:00:48.056Z,62.20
2018-03-04T09:03:16.211Z,58.55
2018-03-04T09:05:43.744Z,61.00
2018-03-04T09:08:11.225Z,47.20
2018-03-04T09:10:38.722Z,57.00
2018-03-04T09:13:06.230Z,61.35
2018-03-04T09:15:34.493Z,66.03
2018-03-04T09:18:02.073Z,57.92
2018-03-04T09:20:30.346Z,49.47
2018-03-04T09:22:57.865Z,59.20
2018-03-04T09:25:25.373Z,47.72
2018-03-04T09:27:52.873Z,56.95
2018-03-04T09:30:20.881Z,52.70
2018-03-04T09:32:48.988Z,58.85
2018-03-04T09:35:16.479Z,50.75
2018-03-04T09:37:44.009Z,59.25
2018-03-04T09:40:11.618Z,60.88
2018-03-04T09:42:39.114Z,50.28
2018-03-04T09:45:06.625Z,54.35
2018-03-04T09:47:34.994Z,55.10
2018-03-04T09:50:02.502Z,54.20
2018-03-04T09:52:30.029Z,58.97
2018-03-04T09:54:58.412Z,57.38
2018-03-04T09:57:26.690Z,53.35
2018-03-04T09:59:54.997Z,52.22
2018-03-04T10:02:22.493Z,54.95
2018-03-04T10:04:49.998Z,53.85
2018-03-04T10:07:18.272Z,50.33
2018-03-04T10:09:45.767Z,49.78
2018-03-04T10:12:13.268Z,69.75
2018-03-04T10:14:40.796Z,65.15
2018-03-04T10:17:08.778Z,71.15
2018-03-04T10:19:36.267Z,60.65
2018-03-04T10:22:03.761Z,61.10
2018-03-04T10:24:32.047Z,65.05
2018-03-04T10:27:00.307Z,55.08
2018-03-04T10:29:27.891Z,64.60
2018-03-04T10:31:55.388Z,56.00
2018-03-04T10:34:22.893Z,50.17
2018-03-04T10:36:50.391Z,55.25
2018-03-04T10:39:18.785Z,58.70
2018-03-04T10:41:46.301Z,61.97
2018-03-04T10:44:13.858Z,70.25
2018-03-04T10:46:41.361Z,70.25
2018-03-04T10:49:09.627Z,88.30
2018-03-04T10:51:37.129Z,63.33
2018-03-04T10:54:04.690Z,59.03
2018-03-04T10:56:32.195Z,55.92
2018-03-04T10:58:59.696Z,60.95
2018-03-04T11:01:28.868Z,73.80
2018-03-04T11:03:56.506Z,54.08
2018-03-04T11:06:24.832Z,68.30
2018-03-04T11:08:52.373Z,54.80
2018-03-04T11:11:19.883Z,64.28
2018-03-04T11:13:48.152Z,65.75
2018-03-04T11:16:16.404Z,51.17
2018-03-04T11:18:43.934Z,61.42
2018-03-04T11:21:11.430Z,65.70
2018-03-04T11:23:39.049Z,56.85
2018-03-04T11:26:06.703Z,59.22
2018-03-04T11:28:34.277Z,59.58
2018-03-04T11:31:02.542Z,64.40
2018-03-04T11:33:30.817Z,63.05
2018-03-04T11:35:59.090Z,75.87
2018-03-04T11:38:26.649Z,62.75
2018-03-04T11:40:54.181Z,55.55
2018-03-04T11:43:21.704Z,59.08
2018-03-04T11:45:49.229Z,79.43
2018-03-04T11:48:16.774Z,63.78
2018-03-04T11:50:44.291Z,61.72
2018-03-04T11:53:12.591Z,61.40
2018-03-04T11:55:40.155Z,70.25
2018-03-04T11:58:07.678Z,67.50
2018-03-04T12:00:35.961Z,58.33
2018-03-04T12:03:04.250Z,55.20
2018-03-04T12:05:33.356Z,62.35
2018-03-04T12:08:02.084Z,63.85
2018-03-04T12:10:29.647Z,65.07
2018-03-04T12:12:57.175Z,59.88
2018-03-04T12:15:25.506Z,61.67
2018-03-04T12:17:53.224Z,69.45
2018-03-04T12:20:21.489Z,69.20
2018-03-04T12:22:49.823Z,67.85
2018-03-04T12:25:17.349Z,60.53
2018-03-04T12:27:45.633Z,64.93
2018-03-04T12:30:13.911Z,60.15
2018-03-04T12:32:42.185Z,63.92
2018-03-04T12:35:10.504Z,74.45
2018-03-04T12:37:38.025Z,65.82
2018-03-04T12:40:06.328Z,67.40
2018-03-04T12:42:33.869Z,78.85
2018-03-04T12:45:02.192Z,65.78
2018-03-04T12:47:29.747Z,62.70
2018-03-04T12:49:57.228Z,69.55
2018-03-04T12:52:24.735Z,51.55
2018-03-04T12:54:53.025Z,68.20
2018-03-04T12:57:21.299Z,69.87
2018-03-04T12:59:49.583Z,61.95
2018-03-04T13:02:17.839Z,68.05
2018-03-04T13:04:45.359Z,61.78
2018-03-04T13:07:12.861Z,72.78
2018-03-04T13:09:40.375Z,68.10
2018-03-04T13:12:07.998Z,69.45
2018-03-04T13:14:36.325Z,60.12
2018-03-04T13:17:04.013Z,74.28
2018-03-04T13:19:31.547Z,59.65
2018-03-04T13:21:59.191Z,62.85
2018-03-04T13:24:27.495Z,74.47
2018-03-04T13:26:56.635Z,60.95
2018-03-04T13:29:24.180Z,67.28
2018-03-04T13:31:51.708Z,73.55
2018-03-04T13:34:20.112Z,77.80
2018-03-04T13:36:47.584Z,61.75
2018-03-04T13:39:15.113Z,67.12
2018-03-04T13:41:43.423Z,61.35
2018-03-04T13:44:11.689Z,70.25
2018-03-04T13:46:39.971Z,63.50
2018-03-04T13:49:08.245Z,54.17
2018-03-04T13:51:36.582Z,63.65
2018-03-04T13:54:04.076Z,58.33
2018-03-04T13:56:31.613Z,65.55
2018-03-04T13:58:59.159Z,66.35
2018-03-04T14:01:26.749Z,58.30
2018-03-04T14:03:54.278Z,61.00
2018-03-04T14:06:22.345Z,59.78
2018-03-04T14:08:50.171Z,61.53
2018-03-04T14:11:17.970Z,58.22
2018-03-04T14:13:45.488Z,73.75
2018-03-04T14:16:13.075Z,57.45
2018-03-04T14:18:41.358Z,67.43
2018-03-04T14:21:08.887Z,70.30
2018-03-04T14:23:36.396Z,68.80
2018-03-04T14:26:04.732Z,64.73
2018-03-04T14:28:32.192Z,59.37
2018-03-04T14:30:59.696Z,69.33
2018-03-04T14:33:27.236Z,58.03
2018-03-04T14:35:54.749Z,69.50
2018-03-04T14:38:22.988Z,64.40
2018-03-04T14:40:50.518Z,61.20
2018-03-04T14:43:18.122Z,68.53
2018-03-04T14:45:45.642Z,55.80
2018-03-04T14:48:13.146Z,65.40
2018-03-04T14:50:40.712Z,62.33
2018-03-04T14:53:08.277Z,61.65
2018-03-04T14:55:35.829Z,52.87
2018-03-04T14:58:03.389Z,55.83
2018-03-04T15:00:30.919Z,56.08
2018-03-04T15:02:58.417Z,60.55
2018-03-04T15:05:25.925Z,63.30
2018-03-04T15:07:53.462Z,58.67
2018-03-04T15:10:21.199Z,67.68
2018-03-04T15:12:48.752Z,60.37
2018-03-04T15:15:16.290Z,54.42
2018-03-04T15:17:44.012Z,66.23
2018-03-04T15:20:11.544Z,57.20
2018-03-04T15:22:39.052Z,60.53
2018-03-04T15:25:06.551Z,60.40
2018-03-04T15:27:34.062Z,70.90
2018-03-04T15:30:01.640Z,64.62
2018-03-04T15:32:29.912Z,57.90
2018-03-04T15:34:57.574Z,58.75
2018-03-04T15:37:25.122Z,60.25
2018-03-04T15:39:52.662Z,57.33
2018-03-04T15:42:20.190Z,75.12
2018-03-04T15:44:48.459Z,67.93
2018-03-04T15:47:15.993Z,82.93
2018-03-04T15:49:43.508Z,53.50
2018-03-04T15:52:11.801Z,60.53
2018-03-04T15:54:40.070Z,66.60
2018-03-04T15:57:08.351Z,59.55
2018-03-04T15:59:36.639Z,61.78
2018-03-04T16:02:04.908Z,61.33
2018-03-04T16:04:33.218Z,68.32
2018-03-04T16:07:00.740Z,62.22
2018-03-04T16:09:28.265Z,57.80
2018-03-04T16:11:55.824Z,65.90
2018-03-04T16:14:23.364Z,61.67
2018-03-04T16:16:50.942Z,72.95
2018-03-04T16:19:18.450Z,76.45
2018-03-04T16:21:45.968Z,68.93
2018-03-04T16:24:13.470Z,79.62
2018-03-04T16:26:41.078Z,68.75
2018-03-04T16:29:08.610Z,67.37
2018-03-04T16:31:36.141Z,94.47
2018-03-04T16:34:03.645Z,65.37
2018-03-04T16:36:31.992Z,61.50
2018-03-04T16:38:59.586Z,69.28
2018-03-04T16:41:27.108Z,67.95
2018-03-04T16:43:54.612Z,63.72
2018-03-04T16:46:22.900Z,68.90
2018-03-04T16:48:50.492Z,61.58
2018-03-04T16:51:18.801Z,63.67
2018-03-04T16:53:46.431Z,61.15
2018-03-04T16:56:14.707Z,63.65
2018-03-04T16:58:43.798Z,61.30
2018-03-04T17:01:12.102Z,59.00
2018-03-04T17:03:39.746Z,51.55
2018-03-04T17:06:08.028Z,54.47
2018-03-04T17:08:36.324Z,67.40
2018-03-04T17:11:04.820Z,65.07
2018-03-04T17:13:33.108Z,57.67
2018-03-04T17:16:00.753Z,70.00
2018-03-04T17:18:29.072Z,54.83
2018-03-04T17:20:56.626Z,64.65
2018-03-04T17:23:24.203Z,52.15
2018-03-04T17:25:51.770Z,61.40
2018-03-04T17:28:19.298Z,67.85
2018-03-04T17:30:47.582Z,51.45
2018-03-04T17:33:15.991Z,56.15
2018-03-04T17:35:43.520Z,64.47
2018-03-04T17:38:11.794Z,57.65
2018-03-04T17:40:39.331Z,63.05
2018-03-04T17:43:06.834Z,55.60
2018-03-04T17:45:35.147Z,67.12
2018-03-04T17:48:03.443Z,52.33
2018-03-04T17:50:31.307Z,58.83
2018-03-04T17:52:58.998Z,53.65
2018-03-04T17:55:26.502Z,53.30
2018-03-04T17:57:54.800Z,58.65
2018-03-04T18:00:22.300Z,58.13
2018-03-04T18:02:49.792Z,75.50
2018-03-04T18:05:18.076Z,51.42
2018-03-04T18:07:46.602Z,58.80
2018-03-04T18:10:14.116Z,54.88
2018-03-04T18:12:42.387Z,60.12
2018-03-04T18:15:09.922Z,48.80
2018-03-04T18:17:37.654Z,48.50
2018-03-04T18:20:05.184Z,58.03
2018-03-04T18:22:32.694Z,58.63
2018-03-04T18:25:00.410Z,57.15
2018-03-04T18:27:27.914Z,68.68
2018-03-04T18:29:56.227Z,62.85
2018-03-04T18:32:23.795Z,50.08
2018-03-04T18:34:51.373Z,61.10
2018-03-04T18:37:19.424Z,68.00
2018-03-04T18:39:47.091Z,61.15
2018-03-04T18:42:14.580Z,55.50
2018-03-04T18:44:42.111Z,54.40
2018-03-04T18:47:09.789Z,68.00
2018-03-04T18:49:37.477Z,58.95
2018-03-04T18:52:05.801Z,61.35
2018-03-04T18:54:34.078Z,60.88
2018-03-04T18:57:02.357Z,60.92
2018-03-04T18:59:30.684Z,66.22
2018-03-04T19:01:58.218Z,70.55
2018-03-04T19:04:25.764Z,73.50
2018-03-04T19:06:54.060Z,71.43
2018-03-04T19:09:22.365Z,68.60
2018-03-04T19:11:49.897Z,57.88
2018-03-04T19:14:18.217Z,71.57
2018-03-04T19:16:45.738Z,70.07
2018-03-04T19:19:14.028Z,73.70
2018-03-04T19:21:41.592Z,78.07
2018-03-04T19:24:09.905Z,70.32
2018-03-04T19:26:37.440Z,76.50
2018-03-04T19:29:05.766Z,75.87
2018-03-04T19:31:33.371Z,67.37
2018-03-04T19:34:01.693Z,78.05
2018-03-04T19:36:29.248Z,63.38
2018-03-04T19:38:56.807Z,66.75
2018-03-04T19:41:24.423Z,72.15
2018-03-04T19:43:52.758Z,62.75
2018-03-04T19:46:20.295Z,62.88
2018-03-04T19:48:48.719Z,69.25
2018-03-04T19:51:16.270Z,70.60
2018-03-04T19:53:43.815Z,66.62
2018-03-04T19:56:12.595Z,72.75
2018-03-04T19:58:40.899Z,78.95
2018-03-04T20:01:08.450Z,67.70
2018-03-04T20:03:36.757Z,81.40
2018-03-04T20:06:04.264Z,71.25
2018-03-04T20:08:31.813Z,72.45
2018-03-04T20:10:59.408Z,83.12
2018-03-04T20:13:28.443Z,74.85
2018-03-04T20:15:55.971Z,66.45
2018-03-04T20:18:23.896Z,79.45
2018-03-04T20:20:51.981Z,69.20
2018-03-04T20:23:19.502Z,62.88
2018-03-04T20:25:47.785Z,69.32
2018-03-04T20:28:16.769Z,89.40
2018-03-04T20:30:44.365Z,66.72
2018-03-04T20:33:11.887Z,65.65
2018-03-04T20:35:39.390Z,67.80
2018-03-04T20:38:06.935Z,74.65
2018-03-04T20:40:35.410Z,67.22
2018-03-04T20:43:03.727Z,78.20
2018-03-04T20:45:31.271Z,59.85
2018-03-04T20:47:59.553Z,80.18
2018-03-04T20:50:28.594Z,65.87
2018-03-04T20:52:56.342Z,68.10
2018-03-04T20:55:23.907Z,71.97
2018-03-04T20:57:51.582Z,85.43
2018-03-04T21:00:19.142Z,73.80
2018-03-04T21:02:46.698Z,61.42
2018-03-04T21:05:14.223Z,78.50
2018-03-04T21:07:42.508Z,72.60
2018-03-04T21:10:10.840Z,69.30
2018-03-04T21:12:38.504Z,72.28
2018-03-04T21:15:06.082Z,80.40
2018-03-04T21:17:33.611Z,74.40
2018-03-04T21:20:01.165Z,73.07
2018-03-04T21:22:29.467Z,75.30
2018-03-04T21:24:57.016Z,65.30
2018-03-04T21:27:24.568Z,58.08
2018-03-04T21:29:52.881Z,59.90
2018-03-04T21:32:20.898Z,68.47
2018-03-04T21:34:48.425Z,84.75
2018-03-04T21:37:15.951Z,79.37
2018-03-04T21:39:44.259Z,64.53
2018-03-04T21:42:11.857Z,77.57
2018-03-04T21:44:39.337Z,78.45
2018-03-04T21:47:06.851Z,62.13
2018-03-04T21:49:34.359Z,70.80
2018-03-04T21:52:01.986Z,71.10
2018-03-04T21:54:29.516Z,61.60
2018-03-04T21:56:57.876Z,81.20
2018-03-04T21:59:25.392Z,75.65
2018-03-04T22:01:52.914Z,74.50
2018-03-04T22:04:21.207Z,68.53
2018-03-04T22:06:49.550Z,70.28
2018-03-04T22:09:17.050Z,63.78
2018-03-04T22:11:45.339Z,63.28
2018-03-04T22:14:13.642Z,66.82
2018-03-04T22:16:41.176Z,62.10
2018-03-04T22:19:09.447Z,62.40
2018-03-04T22:21:37.902Z,70.68
2018-03-04T22:24:05.412Z,60.90
2018-03-04T22:26:32.942Z,78.30
2018-03-04T22:29:00.463Z,62.05
2018-03-04T22:31:27.960Z,60.42
2018-03-04T22:33:55.453Z,67.47
2018-03-04T22:36:23.728Z,70.62
2018-03-04T22:38:51.408Z,69.00
2018-03-04T22:41:19.986Z,70.18
2018-03-04T22:43:47.514Z,64.97
2018-03-04T22:46:15.766Z,80.57
2018-03-04T22:48:43.261Z,62.65
2018-03-04T22:51:10.932Z,60.83
2018-03-04T22:53:38.470Z,68.30
2018-03-04T22:56:06.072Z,80.70
2018-03-04T22:58:35.080Z,70.40
2018-03-04T23:01:02.607Z,71.07
2018-03-04T23:03:30.758Z,70.80
2018-03-04T23:05:59.540Z,77.07
2018-03-04T23:08:28.104Z,57.30
2018-03-04T23:10:55.635Z,68.22
2018-03-04T23:13:23.184Z,88.72
2018-03-04T23:15:50.745Z,68.75
2018-03-04T23:18:18.351Z,64.00
2018-03-04T23:20:45.893Z,76.32
2018-03-04T23:23:13.790Z,61.63
2018-03-04T23:25:42.104Z,71.95
2018-03-04T23:28:10.387Z,59.53
2018-03-04T23:30:37.924Z,64.97
2018-03-04T23:33:06.216Z,66.90
2018-03-04T23:35:34.539Z,58.25
2018-03-04T23:38:02.078Z,68.57
2018-03-04T23:40:29.593Z,69.43
2018-03-04T23:42:57.102Z,60.78
2018-03-04T23:45:24.632Z,79.40
2018-03-04T23:47:52.211Z,66.05
2018-03-04T23:50:20.475Z,69.05
2018-03-04T23:52:48.122Z,71.35
2018-03-04T23:55:15.622Z,61.25
2018-03-04T23:57:43.326Z,68.78
